createdAt,value
2019-03-22T00:00:10.358Z,10.10
2019-03-22T00:02:40.231Z,10.00
2019-03-22T00:05:10.621Z,10.00
2019-03-22T00:07:41.308Z,10.00
2019-03-22T00:10:11.902Z,10.00
2019-03-22T00:12:42.902Z,9.90
2019-03-22T00:15:13.533Z,9.90
2019-03-22T00:17:43.445Z,9.90
2019-03-22T00:20:14.061Z,9.90
2019-03-22T00:22:44.265Z,9.90
2019-03-22T00:25:14.899Z,9.90
2019-03-22T00:27:45.183Z,9.80
2019-03-22T00:30:15.810Z,9.90
2019-03-22T00:32:46.494Z,9.80
2019-03-22T00:35:16.808Z,9.80
2019-03-22T00:37:46.966Z,9.80
2019-03-22T00:40:17.493Z,9.80
2019-03-22T00:42:48.131Z,9.70
2019-03-22T00:45:18.143Z,9.70
2019-03-22T00:47:48.984Z,9.70
2019-03-22T00:50:19.683Z,9.70
2019-03-22T00:52:49.897Z,9.70
2019-03-22T00:55:20.414Z,9.70
2019-03-22T00:57:50.748Z,9.70
2019-03-22T01:00:20.969Z,9.60
2019-03-22T01:02:51.505Z,9.60
2019-03-22T01:05:22.238Z,9.60
2019-03-22T01:07:53.113Z,9.60
2019-03-22T01:10:23.674Z,9.60
2019-03-22T01:12:54.355Z,9.60
2019-03-22T01:15:25.018Z,9.60
2019-03-22T01:17:55.654Z,9.60
2019-03-22T01:20:26.177Z,9.60
2019-03-22T01:22:56.030Z,9.60
2019-03-22T01:25:26.267Z,9.60
2019-03-22T01:27:57.126Z,9.60
2019-03-22T01:30:28.066Z,9.60
2019-03-22T01:32:58.430Z,9.60
2019-03-22T01:35:28.964Z,9.60
2019-03-22T01:37:59.231Z,9.60
2019-03-22T01:40:29.921Z,9.60
2019-03-22T01:43:00.208Z,9.60
2019-03-22T01:45:31.237Z,9.60
2019-03-22T01:48:01.615Z,9.60
2019-03-22T01:50:32.010Z,9.60
2019-03-22T01:53:02.174Z,9.60
2019-03-22T01:55:32.186Z,9.60
2019-03-22T01:58:02.782Z,9.60
2019-03-22T02:00:33.373Z,9.60
2019-03-22T02:03:03.955Z,9.60
2019-03-22T02:05:34.573Z,9.60
2019-03-22T02:08:04.858Z,9.60
2019-03-22T02:10:35.037Z,9.50
2019-03-22T02:13:05.703Z,9.50
2019-03-22T02:15:36.104Z,9.50
2019-03-22T02:18:06.573Z,9.50
2019-03-22T02:20:36.956Z,9.50
2019-03-22T02:23:07.491Z,9.50
2019-03-22T02:25:37.717Z,9.50
2019-03-22T02:28:07.923Z,9.50
2019-03-22T02:30:39.150Z,9.50
2019-03-22T02:33:09.855Z,9.50
2019-03-22T02:35:40.289Z,9.40
2019-03-22T02:38:10.626Z,9.40
2019-03-22T02:40:40.915Z,9.30
2019-03-22T02:43:11.498Z,9.30
2019-03-22T02:45:42.720Z,9.20
2019-03-22T02:48:13.066Z,9.20
2019-03-22T02:50:43.422Z,9.20
2019-03-22T02:53:13.306Z,9.10
2019-03-22T02:55:44.235Z,9.10
2019-03-22T02:58:21.070Z,9.10
2019-03-22T03:00:46.553Z,9.00
2019-03-22T03:03:17.200Z,9.10
2019-03-22T03:05:47.733Z,9.00
2019-03-22T03:08:17.594Z,9.00
2019-03-22T03:10:47.831Z,9.00
2019-03-22T03:13:17.775Z,9.10
2019-03-22T03:15:48.446Z,9.00
2019-03-22T03:18:19.129Z,9.00
2019-03-22T03:20:49.266Z,9.10
2019-03-22T03:23:19.566Z,9.10
2019-03-22T03:25:58.328Z,9.10
2019-03-22T03:28:36.860Z,9.10
2019-03-22T03:31:00.596Z,9.10
2019-03-22T03:33:31.481Z,9.10
2019-03-22T03:36:02.798Z,9.10
2019-03-22T03:38:32.659Z,9.10
2019-03-22T03:41:03.591Z,9.10
2019-03-22T03:43:33.850Z,9.20
2019-03-22T03:46:04.522Z,9.20
2019-03-22T03:48:34.730Z,9.20
2019-03-22T03:51:04.605Z,9.10
2019-03-22T03:53:37.251Z,9.10
2019-03-22T03:56:08.225Z,9.10
2019-03-22T03:58:51.532Z,9.10
2019-03-22T04:01:10.577Z,9.10
2019-03-22T04:03:40.898Z,9.10
2019-03-22T04:06:11.233Z,9.10
2019-03-22T04:08:42.174Z,9.10
2019-03-22T04:11:12.378Z,9.10
2019-03-22T04:13:42.664Z,9.10
2019-03-22T04:16:12.618Z,9.00
2019-03-22T04:18:43.519Z,9.10
2019-03-22T04:21:13.965Z,9.00
2019-03-22T04:23:44.700Z,9.00
2019-03-22T04:26:15.681Z,9.00
2019-03-22T04:28:46.639Z,9.00
2019-03-22T04:31:17.374Z,9.00
2019-03-22T04:33:48.065Z,9.00
2019-03-22T04:36:19.050Z,9.00
2019-03-22T04:38:49.415Z,9.00
2019-03-22T04:41:19.410Z,9.00
2019-03-22T04:43:50.050Z,9.00
2019-03-22T04:46:21.430Z,9.10
2019-03-22T04:48:53.533Z,9.10
2019-03-22T04:51:25.994Z,9.10
2019-03-22T04:54:02.562Z,9.10
2019-03-22T04:56:34.435Z,9.10
2019-03-22T04:59:18.402Z,9.10
2019-03-22T05:01:44.498Z,9.10
2019-03-22T05:04:15.887Z,9.20
2019-03-22T05:06:47.583Z,9.10
2019-03-22T05:09:18.585Z,9.00
2019-03-22T05:11:50.933Z,9.00
2019-03-22T05:14:22.428Z,9.10
2019-03-22T05:16:54.177Z,8.90
2019-03-22T05:19:27.420Z,8.90
2019-03-22T05:21:58.290Z,8.90
2019-03-22T05:24:30.797Z,8.80
2019-03-22T05:27:02.307Z,8.80
2019-03-22T05:29:35.474Z,8.70
2019-03-22T05:32:15.859Z,8.80
2019-03-22T05:34:46.378Z,8.70
2019-03-22T05:37:17.047Z,8.80
2019-03-22T05:39:47.685Z,8.80
2019-03-22T05:42:18.389Z,8.80
2019-03-22T05:44:48.629Z,8.80
2019-03-22T05:47:19.312Z,8.80
2019-03-22T05:49:50.654Z,8.80
2019-03-22T05:52:20.737Z,8.90
2019-03-22T05:54:50.957Z,8.90
2019-03-22T05:57:21.249Z,8.90
2019-03-22T05:59:51.478Z,9.00
2019-03-22T06:02:21.808Z,9.00
2019-03-22T06:04:52.134Z,9.00
2019-03-22T06:07:22.440Z,9.10
2019-03-22T06:09:52.740Z,9.10
2019-03-22T06:12:22.963Z,9.20
2019-03-22T06:14:53.776Z,9.20
2019-03-22T06:17:24.871Z,9.20
2019-03-22T06:19:55.169Z,9.20
2019-03-22T06:22:25.816Z,9.30
2019-03-22T06:24:55.823Z,9.30
2019-03-22T06:27:26.589Z,9.30
2019-03-22T06:29:56.953Z,9.40
2019-03-22T06:32:27.554Z,9.40
2019-03-22T06:34:59.793Z,9.40
2019-03-22T06:37:30.224Z,9.50
2019-03-22T06:40:00.563Z,9.50
2019-03-22T06:42:34.058Z,9.50
2019-03-22T06:45:08.010Z,9.50
2019-03-22T06:47:38.298Z,9.50
2019-03-22T06:50:08.568Z,9.60
2019-03-22T06:52:38.782Z,9.60
2019-03-22T06:55:09.925Z,9.60
2019-03-22T06:57:41.413Z,9.70
2019-03-22T07:00:12.268Z,9.60
2019-03-22T07:02:45.173Z,9.70
2019-03-22T07:05:16.531Z,9.60
2019-03-22T07:07:47.284Z,9.70
2019-03-22T07:10:18.323Z,9.80
2019-03-22T07:12:48.917Z,9.80
2019-03-22T07:15:19.257Z,9.90
2019-03-22T07:17:49.498Z,9.90
2019-03-22T07:20:19.474Z,10.00
2019-03-22T07:22:49.850Z,10.10
2019-03-22T07:25:20.167Z,10.10
2019-03-22T07:27:51.090Z,10.20
2019-03-22T07:30:21.886Z,10.20
2019-03-22T07:32:52.062Z,10.30
2019-03-22T07:35:22.070Z,10.40
2019-03-22T07:37:52.414Z,10.40
2019-03-22T07:40:23.521Z,10.50
2019-03-22T07:42:53.986Z,10.50
2019-03-22T07:45:27.107Z,10.50
2019-03-22T07:47:57.627Z,10.50
2019-03-22T07:50:28.238Z,10.40
2019-03-22T07:52:59.382Z,10.60
2019-03-22T07:55:30.057Z,10.50
2019-03-22T07:58:00.556Z,10.50
2019-03-22T08:00:31.357Z,10.70
2019-03-22T08:03:02.279Z,10.70
2019-03-22T08:05:32.937Z,10.70
2019-03-22T08:08:03.108Z,10.70
2019-03-22T08:10:33.080Z,10.70
2019-03-22T08:13:04.423Z,10.70
2019-03-22T08:15:35.705Z,10.80
2019-03-22T08:18:24.463Z,10.70
2019-03-22T08:20:55.547Z,10.70
2019-03-22T08:23:29.585Z,10.70
2019-03-22T08:25:59.720Z,10.70
2019-03-22T08:28:30.282Z,10.90
2019-03-22T08:31:01.213Z,11.00
2019-03-22T08:33:33.438Z,11.00
2019-03-22T08:36:03.695Z,11.20
2019-03-22T08:38:33.676Z,11.50
2019-03-22T08:41:06.654Z,11.40
2019-03-22T08:43:36.960Z,11.50
2019-03-22T08:46:07.172Z,11.70
2019-03-22T08:48:38.568Z,11.60
2019-03-22T08:51:10.011Z,11.80
2019-03-22T08:53:54.781Z,12.10
2019-03-22T08:56:15.667Z,11.80
2019-03-22T08:58:45.805Z,12.10
2019-03-22T09:01:16.768Z,12.00
2019-03-22T09:03:47.623Z,11.90
2019-03-22T09:06:18.563Z,12.30
2019-03-22T09:08:49.186Z,12.20
2019-03-22T09:11:19.094Z,12.20
2019-03-22T09:13:49.324Z,11.90
2019-03-22T09:16:19.922Z,11.90
2019-03-22T09:18:50.304Z,11.90
2019-03-22T09:21:20.789Z,12.00
2019-03-22T09:23:51.369Z,12.20
2019-03-22T09:26:21.687Z,12.40
2019-03-22T09:28:54.231Z,12.40
2019-03-22T09:31:24.585Z,12.20
2019-03-22T09:33:54.750Z,12.00
2019-03-22T09:36:25.468Z,12.10
2019-03-22T09:38:56.063Z,12.50
2019-03-22T09:41:27.384Z,13.00
2019-03-22T09:43:58.148Z,13.20
2019-03-22T09:46:28.570Z,13.20
2019-03-22T09:48:59.501Z,13.00
2019-03-22T09:51:29.834Z,12.60
2019-03-22T09:54:00.782Z,12.50
2019-03-22T09:56:31.427Z,12.70
2019-03-22T09:59:01.911Z,12.70
2019-03-22T10:01:32.745Z,12.80
2019-03-22T10:04:03.111Z,13.40
2019-03-22T10:06:33.642Z,13.40
2019-03-22T10:09:06.209Z,13.50
2019-03-22T10:11:36.819Z,13.30
2019-03-22T10:14:07.065Z,13.20
2019-03-22T10:16:37.395Z,13.10
2019-03-22T10:19:07.638Z,12.80
2019-03-22T10:21:38.329Z,13.10
2019-03-22T10:24:08.827Z,13.30
2019-03-22T10:26:39.092Z,13.50
2019-03-22T10:29:10.217Z,13.80
2019-03-22T10:31:40.607Z,13.50
2019-03-22T10:34:10.696Z,13.50
2019-03-22T10:36:40.622Z,13.40
2019-03-22T10:39:11.337Z,13.40
2019-03-22T10:41:41.303Z,13.80
2019-03-22T10:44:12.321Z,13.80
2019-03-22T10:46:42.304Z,13.90
2019-03-22T10:49:12.794Z,13.90
2019-03-22T10:51:55.805Z,13.90
2019-03-22T10:54:15.285Z,14.10
2019-03-22T10:56:46.353Z,14.20
2019-03-22T10:59:16.834Z,14.40
2019-03-22T11:02:02.304Z,14.20
2019-03-22T11:04:19.050Z,14.10
2019-03-22T11:06:49.413Z,13.80
2019-03-22T11:09:19.781Z,13.90
2019-03-22T11:11:50.664Z,13.90
2019-03-22T11:14:21.033Z,14.00
2019-03-22T11:16:53.168Z,13.90
2019-03-22T11:19:23.530Z,14.10
2019-03-22T11:21:54.102Z,14.40
2019-03-22T11:24:24.412Z,14.40
2019-03-22T11:26:54.707Z,14.00
2019-03-22T11:29:25.477Z,13.80
2019-03-22T11:31:56.090Z,14.10
2019-03-22T11:34:26.344Z,13.90
2019-03-22T11:36:57.243Z,14.00
2019-03-22T11:39:28.307Z,14.20
2019-03-22T11:41:58.729Z,14.40
2019-03-22T11:44:28.715Z,14.10
2019-03-22T11:46:59.467Z,14.20
2019-03-22T11:49:30.101Z,13.90
2019-03-22T11:52:00.326Z,13.70
2019-03-22T11:54:31.808Z,13.90
2019-03-22T11:57:02.063Z,13.70
2019-03-22T11:59:32.609Z,14.40
2019-03-22T12:02:02.902Z,14.50
2019-03-22T12:04:33.392Z,14.20
2019-03-22T12:07:04.177Z,14.30
2019-03-22T12:09:34.526Z,14.50
2019-03-22T12:12:04.527Z,14.30
2019-03-22T12:14:34.897Z,14.40
2019-03-22T12:17:06.017Z,14.10
2019-03-22T12:19:36.297Z,13.80
2019-03-22T12:22:06.242Z,14.20
2019-03-22T12:24:37.475Z,14.30
2019-03-22T12:27:08.634Z,14.50
2019-03-22T12:29:39.529Z,14.10
2019-03-22T12:32:09.957Z,13.70
2019-03-22T12:34:40.490Z,13.80
2019-03-22T12:37:10.811Z,14.00
2019-03-22T12:39:41.987Z,14.10
2019-03-22T12:42:13.143Z,14.50
2019-03-22T12:44:44.140Z,14.20
2019-03-22T12:47:14.813Z,14.60
2019-03-22T12:49:45.723Z,14.40
2019-03-22T12:52:16.322Z,14.50
2019-03-22T12:54:46.586Z,14.50
2019-03-22T12:57:18.659Z,14.70
2019-03-22T12:59:49.267Z,14.50
2019-03-22T13:02:19.621Z,14.50
2019-03-22T13:04:49.954Z,14.50
2019-03-22T13:07:19.832Z,14.30
2019-03-22T13:09:50.463Z,14.40
2019-03-22T13:12:20.405Z,14.00
2019-03-22T13:14:51.444Z,14.10
2019-03-22T13:17:21.481Z,14.20
2019-03-22T13:19:52.104Z,14.00
2019-03-22T13:22:23.240Z,13.90
2019-03-22T13:24:53.636Z,13.90
2019-03-22T13:27:24.333Z,14.00
2019-03-22T13:29:54.914Z,13.90
2019-03-22T13:32:25.249Z,14.40
2019-03-22T13:34:56.180Z,14.20
2019-03-22T13:37:26.811Z,14.30
2019-03-22T13:39:57.499Z,14.20
2019-03-22T13:42:28.471Z,14.10
2019-03-22T13:44:59.000Z,14.70
2019-03-22T13:47:29.396Z,14.90
2019-03-22T13:50:00.408Z,14.70
2019-03-22T13:52:31.202Z,14.80
2019-03-22T13:55:03.200Z,14.70
2019-03-22T13:57:33.370Z,14.40
2019-03-22T14:00:04.130Z,14.40
2019-03-22T14:02:34.898Z,14.50
2019-03-22T14:05:06.106Z,14.20
2019-03-22T14:07:36.309Z,14.30
2019-03-22T14:10:07.563Z,14.70
2019-03-22T14:12:37.568Z,14.80
2019-03-22T14:15:08.963Z,14.40
2019-03-22T14:17:39.269Z,14.30
2019-03-22T14:20:11.487Z,13.90
2019-03-22T14:22:41.886Z,13.70
2019-03-22T14:25:12.628Z,13.60
2019-03-22T14:27:43.258Z,13.60
2019-03-22T14:30:13.960Z,13.90
2019-03-22T14:32:44.945Z,13.90
2019-03-22T14:35:14.880Z,13.90
2019-03-22T14:37:44.858Z,14.00
2019-03-22T14:40:15.808Z,14.00
2019-03-22T14:42:46.547Z,14.00
2019-03-22T14:45:17.536Z,13.90
2019-03-22T14:47:48.412Z,13.90
2019-03-22T14:50:19.016Z,14.10
2019-03-22T14:52:49.277Z,14.20
2019-03-22T14:55:19.206Z,13.90
2019-03-22T14:57:52.254Z,13.80
2019-03-22T15:00:21.638Z,13.80
2019-03-22T15:02:52.610Z,13.80
2019-03-22T15:05:23.749Z,13.80
2019-03-22T15:07:54.007Z,13.70
2019-03-22T15:10:24.917Z,13.70
2019-03-22T15:12:55.261Z,13.70
2019-03-22T15:15:37.842Z,13.70
2019-03-22T15:18:27.476Z,13.70
2019-03-22T15:21:31.985Z,13.70
2019-03-22T15:24:29.990Z,13.80
2019-03-22T15:27:17.971Z,13.70
2019-03-22T15:30:06.280Z,13.70
2019-03-22T15:33:01.971Z,13.50
2019-03-22T15:35:52.845Z,13.50
2019-03-22T15:38:50.507Z,13.40
2019-03-22T15:41:20.949Z,13.40
2019-03-22T15:43:51.659Z,13.30
2019-03-22T15:46:22.183Z,13.30
2019-03-22T15:48:53.168Z,13.30
2019-03-22T15:51:25.285Z,13.20
2019-03-22T15:53:55.982Z,13.20
2019-03-22T15:56:26.497Z,13.20
2019-03-22T15:58:56.927Z,13.10
2019-03-22T16:01:27.085Z,13.20
2019-03-22T16:03:57.704Z,13.00
2019-03-22T16:06:27.625Z,13.00
2019-03-22T16:08:57.838Z,13.00
2019-03-22T16:11:28.061Z,13.00
2019-03-22T16:13:58.310Z,12.90
2019-03-22T16:16:28.226Z,12.80
2019-03-22T16:18:58.490Z,12.80
2019-03-22T16:21:28.838Z,12.80
2019-03-22T16:23:59.172Z,12.80
2019-03-22T16:26:29.749Z,13.30
2019-03-22T16:29:00.689Z,13.50
2019-03-22T16:31:31.150Z,13.40
2019-03-22T16:34:01.487Z,13.30
2019-03-22T16:36:31.814Z,13.10
2019-03-22T16:39:01.765Z,12.90
2019-03-22T16:41:31.725Z,12.80
2019-03-22T16:44:02.265Z,12.60
2019-03-22T16:46:33.187Z,12.40
2019-03-22T16:49:03.576Z,12.30
2019-03-22T16:51:33.655Z,12.10
2019-03-22T16:54:03.878Z,12.10
2019-03-22T16:56:34.239Z,12.00
2019-03-22T16:59:04.915Z,12.10
2019-03-22T17:01:35.243Z,11.90
2019-03-22T17:04:05.638Z,11.90
2019-03-22T17:06:35.829Z,11.80
2019-03-22T17:09:07.611Z,11.80
2019-03-22T17:11:37.948Z,11.90
2019-03-22T17:14:07.861Z,11.80
2019-03-22T17:16:38.969Z,11.60
2019-03-22T17:19:09.862Z,11.70
2019-03-22T17:21:40.475Z,11.50
2019-03-22T17:24:11.053Z,11.40
2019-03-22T17:26:41.738Z,11.40
2019-03-22T17:29:12.355Z,11.50
2019-03-22T17:31:44.073Z,11.40
2019-03-22T17:34:14.791Z,11.30
2019-03-22T17:36:45.570Z,11.30
2019-03-22T17:39:17.435Z,11.30
2019-03-22T17:41:47.474Z,11.20
2019-03-22T17:44:17.726Z,11.30
2019-03-22T17:46:48.695Z,11.10
2019-03-22T17:49:19.158Z,11.20
2019-03-22T17:51:50.141Z,11.10
2019-03-22T17:54:20.758Z,11.20
2019-03-22T17:56:51.382Z,11.30
2019-03-22T17:59:21.927Z,11.20
2019-03-22T18:01:52.474Z,10.90
2019-03-22T18:04:24.319Z,10.90
2019-03-22T18:06:54.848Z,10.80
2019-03-22T18:09:25.172Z,10.80
2019-03-22T18:11:55.119Z,10.90
2019-03-22T18:14:27.030Z,10.90
2019-03-22T18:16:58.308Z,10.80
2019-03-22T18:19:28.618Z,10.80
2019-03-22T18:21:59.453Z,10.90
2019-03-22T18:24:29.741Z,10.90
2019-03-22T18:27:00.160Z,10.60
2019-03-22T18:29:30.451Z,10.50
2019-03-22T18:32:00.365Z,10.60
2019-03-22T18:34:34.551Z,10.70
2019-03-22T18:37:02.985Z,10.60
2019-03-22T18:39:33.822Z,10.50
2019-03-22T18:42:04.469Z,10.60
2019-03-22T18:44:35.022Z,10.40
2019-03-22T18:47:05.273Z,10.50
2019-03-22T18:49:35.801Z,10.30
2019-03-22T18:52:08.149Z,10.20
2019-03-22T18:54:37.820Z,10.20
2019-03-22T18:57:08.517Z,10.10
2019-03-22T18:59:39.045Z,10.10
2019-03-22T19:02:08.958Z,10.00
2019-03-22T19:04:43.867Z,10.10
2019-03-22T19:07:11.318Z,9.90
2019-03-22T19:09:41.559Z,9.80
2019-03-22T19:12:11.593Z,9.70
2019-03-22T19:14:42.012Z,9.90
2019-03-22T19:17:12.310Z,10.10
2019-03-22T19:19:43.175Z,10.10
2019-03-22T19:22:13.050Z,9.90
2019-03-22T19:24:43.359Z,10.00
2019-03-22T19:27:13.249Z,9.90
2019-03-22T19:29:43.458Z,9.70
2019-03-22T19:32:13.942Z,9.40
2019-03-22T19:34:53.925Z,9.40
2019-03-22T19:37:16.576Z,9.30
2019-03-22T19:39:46.853Z,9.30
2019-03-22T19:42:17.156Z,9.30
2019-03-22T19:44:47.879Z,9.20
2019-03-22T19:47:18.145Z,9.10
2019-03-22T19:49:48.733Z,9.30
2019-03-22T19:52:19.500Z,9.20
2019-03-22T19:54:50.585Z,9.20
2019-03-22T19:57:20.745Z,9.20
2019-03-22T19:59:50.986Z,9.20
2019-03-22T20:02:21.785Z,9.30
2019-03-22T20:04:52.635Z,9.40
2019-03-22T20:07:26.828Z,9.20
2019-03-22T20:09:55.231Z,9.10
2019-03-22T20:12:25.112Z,9.20
2019-03-22T20:14:55.643Z,9.20
2019-03-22T20:17:26.893Z,9.30
2019-03-22T20:19:57.858Z,9.20
2019-03-22T20:22:28.595Z,9.20
2019-03-22T20:24:58.814Z,9.30
2019-03-22T20:27:29.038Z,9.20
2019-03-22T20:29:59.259Z,9.00
2019-03-22T20:32:29.181Z,8.90
2019-03-22T20:34:59.706Z,8.90
2019-03-22T20:37:30.338Z,8.90
2019-03-22T20:40:00.973Z,9.00
2019-03-22T20:42:31.163Z,9.20
2019-03-22T20:45:01.813Z,8.90
2019-03-22T20:47:31.650Z,8.90
2019-03-22T20:50:02.188Z,8.90
2019-03-22T20:52:32.433Z,8.80
2019-03-22T20:55:02.386Z,8.80
2019-03-22T20:57:32.701Z,8.60
2019-03-22T21:00:03.169Z,8.60
2019-03-22T21:02:33.552Z,8.50
2019-03-22T21:05:04.130Z,8.50
2019-03-22T21:07:35.081Z,8.50
2019-03-22T21:10:05.953Z,8.30
2019-03-22T21:12:36.687Z,8.30
2019-03-22T21:15:07.787Z,8.20
2019-03-22T21:17:38.059Z,8.30
2019-03-22T21:20:08.580Z,8.20
2019-03-22T21:22:38.506Z,8.00
2019-03-22T21:25:09.510Z,8.10
2019-03-22T21:27:39.905Z,8.10
2019-03-22T21:30:10.127Z,8.00
2019-03-22T21:32:45.244Z,8.00
2019-03-22T21:35:22.059Z,7.90
2019-03-22T21:37:43.754Z,7.80
2019-03-22T21:40:14.151Z,7.60
2019-03-22T21:42:44.034Z,7.60
2019-03-22T21:45:14.728Z,7.50
2019-03-22T21:47:44.966Z,7.50
2019-03-22T21:50:15.908Z,7.40
2019-03-22T21:52:45.814Z,7.30
2019-03-22T21:55:16.542Z,7.40
2019-03-22T21:57:46.950Z,7.30
2019-03-22T22:00:17.616Z,7.10
2019-03-22T22:02:48.292Z,7.00
2019-03-22T22:05:18.533Z,7.10
2019-03-22T22:07:49.217Z,7.20
2019-03-22T22:10:19.806Z,7.10
2019-03-22T22:12:50.578Z,7.20
2019-03-22T22:15:21.413Z,7.00
2019-03-22T22:17:52.047Z,7.00
2019-03-22T22:20:28.980Z,7.00
2019-03-22T22:22:54.602Z,7.00
2019-03-22T22:25:25.273Z,6.80
2019-03-22T22:27:56.137Z,6.80
2019-03-22T22:30:27.107Z,6.80
2019-03-22T22:32:57.902Z,6.60
2019-03-22T22:35:28.841Z,6.60
2019-03-22T22:37:59.314Z,6.60
2019-03-22T22:40:30.318Z,6.50
2019-03-22T22:43:01.110Z,6.70
2019-03-22T22:45:31.365Z,6.50
2019-03-22T22:48:02.305Z,6.40
2019-03-22T22:50:32.222Z,6.40
2019-03-22T22:53:02.506Z,6.30
2019-03-22T22:55:32.750Z,6.40
2019-03-22T22:58:03.815Z,6.30
2019-03-22T23:00:35.217Z,6.30
2019-03-22T23:03:05.934Z,6.20
2019-03-22T23:05:36.264Z,6.10
2019-03-22T23:08:06.953Z,6.00
2019-03-22T23:10:37.479Z,6.00
2019-03-22T23:13:08.110Z,6.00
2019-03-22T23:15:38.367Z,5.90
2019-03-22T23:18:08.534Z,5.90
2019-03-22T23:20:39.161Z,5.80
2019-03-22T23:23:10.130Z,5.80
2019-03-22T23:25:39.983Z,5.70
2019-03-22T23:28:10.097Z,5.60
2019-03-22T23:30:40.695Z,5.60
2019-03-22T23:33:10.545Z,5.50
2019-03-22T23:35:40.961Z,5.40
2019-03-22T23:38:11.741Z,5.40
2019-03-22T23:40:41.626Z,5.30
2019-03-22T23:43:12.491Z,5.30
2019-03-22T23:45:43.411Z,5.20
2019-03-22T23:48:14.310Z,5.00
2019-03-22T23:50:44.526Z,4.90
2019-03-22T23:53:14.748Z,5.00
2019-03-22T23:55:44.977Z,5.00
2019-03-22T23:58:14.853Z,5.20
